sensor_id;sensor_type;location;lat;lon;timestamp;P1;durP1;ratioP1;P2;durP2;ratioP2
41719;SDS011;27405;53.316;-6.294;2023-11-22T00:00:17;11.10;;;3.28;;
41719;SDS011;27405;53.316;-6.294;2023-11-22T00:02:46;14.88;;;2.63;;
41719;SDS011;27405;53.316;-6.294;2023-11-22T00:05:12;9.23;;;2.55;;
41719;SDS011;27405;53.316;-6.294;2023-11-22T00:07:38;11.52;;;2.72;;
41719;SDS011;27405;53.316;-6.294;2023-11-22T00:10:04;8.68;;;2.53;;
41719;SDS011;27405;53.316;-6.294;2023-11-22T00:12:31;11.73;;;2.72;;
41719;SDS011;27405;53.316;-6.294;2023-11-22T00:15:03;6.38;;;2.50;;
41719;SDS011;27405;53.316;-6.294;2023-11-22T00:17:34;10.32;;;2.60;;
41719;SDS011;27405;53.316;-6.294;2023-11-22T00:20:00;10.73;;;2.65;;
41719;SDS011;27405;53.316;-6.294;2023-11-22T00:22:33;14.15;;;2.75;;
41719;SDS011;27405;53.316;-6.294;2023-11-22T00:24:59;9.82;;;2.45;;
41719;SDS011;27405;53.316;-6.294;2023-11-22T00:27:29;7.82;;;2.50;;
41719;SDS011;27405;53.316;-6.294;2023-11-22T00:29:58;11.20;;;2.70;;
41719;SDS011;27405;53.316;-6.294;2023-11-22T00:32:25;11.18;;;3.03;;
41719;SDS011;27405;53.316;-6.294;2023-11-22T00:38:13;6.05;;;2.30;;
41719;SDS011;27405;53.316;-6.294;2023-11-22T00:40:39;7.53;;;1.75;;
41719;SDS011;27405;53.316;-6.294;2023-11-22T00:43:05;6.32;;;2.28;;
41719;SDS011;27405;53.316;-6.294;2023-11-22T00:45:31;7.70;;;2.60;;
41719;SDS011;27405;53.316;-6.294;2023-11-22T00:47:58;10.82;;;2.70;;
41719;SDS011;27405;53.316;-6.294;2023-11-22T00:50:24;7.10;;;2.53;;
41719;SDS011;27405;53.316;-6.294;2023-11-22T00:52:51;9.23;;;2.78;;
41719;SDS011;27405;53.316;-6.294;2023-11-22T00:55:17;6.03;;;2.60;;
41719;SDS011;27405;53.316;-6.294;2023-11-22T00:57:43;6.68;;;2.38;;
41719;SDS011;27405;53.316;-6.294;2023-11-22T01:00:09;9.60;;;3.03;;
41719;SDS011;27405;53.316;-6.294;2023-11-22T01:02:36;9.25;;;2.50;;
41719;SDS011;27405;53.316;-6.294;2023-11-22T01:05:06;7.63;;;2.55;;
41719;SDS011;27405;53.316;-6.294;2023-11-22T01:07:36;8.05;;;2.50;;
41719;SDS011;27405;53.316;-6.294;2023-11-22T01:10:03;6.05;;;2.30;;
41719;SDS011;27405;53.316;-6.294;2023-11-22T01:12:31;5.78;;;2.20;;
41719;SDS011;27405;53.316;-6.294;2023-11-22T01:18:19;7.82;;;2.85;;
41719;SDS011;27405;53.316;-6.294;2023-11-22T01:20:45;7.20;;;2.50;;
41719;SDS011;27405;53.316;-6.294;2023-11-22T01:23:11;8.07;;;2.33;;
41719;SDS011;27405;53.316;-6.294;2023-11-22T01:25:37;8.55;;;2.80;;
41719;SDS011;27405;53.316;-6.294;2023-11-22T01:28:03;10.65;;;2.75;;
41719;SDS011;27405;53.316;-6.294;2023-11-22T01:30:30;4.43;;;2.30;;
41719;SDS011;27405;53.316;-6.294;2023-11-22T01:32:57;9.20;;;3.00;;
41719;SDS011;27405;53.316;-6.294;2023-11-22T01:35:23;9.00;;;2.67;;
41719;SDS011;27405;53.316;-6.294;2023-11-22T01:37:49;7.18;;;2.50;;
41719;SDS011;27405;53.316;-6.294;2023-11-22T01:40:17;7.70;;;2.38;;
41719;SDS011;27405;53.316;-6.294;2023-11-22T01:42:44;3.78;;;1.88;;
41719;SDS011;27405;53.316;-6.294;2023-11-22T01:45:11;4.85;;;2.20;;
41719;SDS011;27405;53.316;-6.294;2023-11-22T01:47:37;4.35;;;1.88;;
41719;SDS011;27405;53.316;-6.294;2023-11-22T01:50:07;6.18;;;1.98;;
41719;SDS011;27405;53.316;-6.294;2023-11-22T01:52:34;4.30;;;1.80;;
41719;SDS011;27405;53.316;-6.294;2023-11-22T01:55:01;6.32;;;2.08;;
41719;SDS011;27405;53.316;-6.294;2023-11-22T01:57:31;3.55;;;1.90;;
41719;SDS011;27405;53.316;-6.294;2023-11-22T02:00:00;8.10;;;2.40;;
41719;SDS011;27405;53.316;-6.294;2023-11-22T02:02:28;2.85;;;1.77;;
41719;SDS011;27405;53.316;-6.294;2023-11-22T02:04:55;5.28;;;2.30;;
41719;SDS011;27405;53.316;-6.294;2023-11-22T02:07:22;3.58;;;2.10;;
41719;SDS011;27405;53.316;-6.294;2023-11-22T02:09:48;3.05;;;2.20;;
41719;SDS011;27405;53.316;-6.294;2023-11-22T02:12:14;6.60;;;4.05;;
41719;SDS011;27405;53.316;-6.294;2023-11-22T02:14:40;10.70;;;5.88;;
41719;SDS011;27405;53.316;-6.294;2023-11-22T02:17:06;10.60;;;6.63;;
41719;SDS011;27405;53.316;-6.294;2023-11-22T02:19:32;12.13;;;5.28;;
41719;SDS011;27405;53.316;-6.294;2023-11-22T02:21:58;7.35;;;3.40;;
41719;SDS011;27405;53.316;-6.294;2023-11-22T02:27:46;3.90;;;2.38;;
41719;SDS011;27405;53.316;-6.294;2023-11-22T02:30:13;4.20;;;2.20;;
41719;SDS011;27405;53.316;-6.294;2023-11-22T02:32:39;5.28;;;2.58;;
41719;SDS011;27405;53.316;-6.294;2023-11-22T02:35:05;4.95;;;2.38;;
41719;SDS011;27405;53.316;-6.294;2023-11-22T02:37:33;4.90;;;2.35;;
41719;SDS011;27405;53.316;-6.294;2023-11-22T02:40:11;5.35;;;2.25;;
41719;SDS011;27405;53.316;-6.294;2023-11-22T02:42:53;4.00;;;2.30;;
41719;SDS011;27405;53.316;-6.294;2023-11-22T02:45:26;4.97;;;2.10;;
41719;SDS011;27405;53.316;-6.294;2023-11-22T02:51:15;3.63;;;2.10;;
41719;SDS011;27405;53.316;-6.294;2023-11-22T02:53:42;5.28;;;2.22;;
41719;SDS011;27405;53.316;-6.294;2023-11-22T02:56:10;4.90;;;2.40;;
41719;SDS011;27405;53.316;-6.294;2023-11-22T02:58:36;4.70;;;2.00;;
41719;SDS011;27405;53.316;-6.294;2023-11-22T03:01:02;4.32;;;2.10;;
41719;SDS011;27405;53.316;-6.294;2023-11-22T03:06:50;2.60;;;1.92;;
41719;SDS011;27405;53.316;-6.294;2023-11-22T03:09:16;5.38;;;2.50;;
41719;SDS011;27405;53.316;-6.294;2023-11-22T03:11:42;5.55;;;2.30;;
41719;SDS011;27405;53.316;-6.294;2023-11-22T03:14:08;4.63;;;2.20;;
41719;SDS011;27405;53.316;-6.294;2023-11-22T03:16:34;3.97;;;2.20;;
41719;SDS011;27405;53.316;-6.294;2023-11-22T03:19:03;4.38;;;1.83;;
41719;SDS011;27405;53.316;-6.294;2023-11-22T03:21:29;4.60;;;2.30;;
41719;SDS011;27405;53.316;-6.294;2023-11-22T03:23:55;3.67;;;2.13;;
41719;SDS011;27405;53.316;-6.294;2023-11-22T03:26:23;7.18;;;2.33;;
41719;SDS011;27405;53.316;-6.294;2023-11-22T03:28:50;5.07;;;2.53;;
41719;SDS011;27405;53.316;-6.294;2023-11-22T03:31:18;4.40;;;2.13;;
41719;SDS011;27405;53.316;-6.294;2023-11-22T03:33:44;2.85;;;2.40;;
41719;SDS011;27405;53.316;-6.294;2023-11-22T03:36:11;5.35;;;2.20;;
41719;SDS011;27405;53.316;-6.294;2023-11-22T03:38:37;3.83;;;1.92;;
41719;SDS011;27405;53.316;-6.294;2023-11-22T03:41:04;2.42;;;1.60;;
41719;SDS011;27405;53.316;-6.294;2023-11-22T03:43:31;4.35;;;1.67;;
41719;SDS011;27405;53.316;-6.294;2023-11-22T03:45:57;3.33;;;1.30;;
41719;SDS011;27405;53.316;-6.294;2023-11-22T03:48:23;2.75;;;1.45;;
41719;SDS011;27405;53.316;-6.294;2023-11-22T03:50:51;3.93;;;1.77;;
41719;SDS011;27405;53.316;-6.294;2023-11-22T03:53:17;2.10;;;1.42;;
41719;SDS011;27405;53.316;-6.294;2023-11-22T03:55:45;3.10;;;1.50;;
41719;SDS011;27405;53.316;-6.294;2023-11-22T03:58:11;6.40;;;1.58;;
41719;SDS011;27405;53.316;-6.294;2023-11-22T04:00:37;2.03;;;1.20;;
41719;SDS011;27405;53.316;-6.294;2023-11-22T04:03:03;1.23;;;1.05;;
41719;SDS011;27405;53.316;-6.294;2023-11-22T04:05:29;2.83;;;1.52;;
41719;SDS011;27405;53.316;-6.294;2023-11-22T04:07:55;4.45;;;1.67;;
41719;SDS011;27405;53.316;-6.294;2023-11-22T04:10:22;2.83;;;1.30;;
41719;SDS011;27405;53.316;-6.294;2023-11-22T04:12:48;2.63;;;1.65;;
41719;SDS011;27405;53.316;-6.294;2023-11-22T04:15:14;2.97;;;1.30;;
41719;SDS011;27405;53.316;-6.294;2023-11-22T04:17:41;3.50;;;1.08;;
41719;SDS011;27405;53.316;-6.294;2023-11-22T04:20:07;4.00;;;1.30;;
41719;SDS011;27405;53.316;-6.294;2023-11-22T04:22:39;1.83;;;1.02;;
41719;SDS011;27405;53.316;-6.294;2023-11-22T04:25:10;1.77;;;1.17;;
41719;SDS011;27405;53.316;-6.294;2023-11-22T04:27:40;2.40;;;0.90;;
41719;SDS011;27405;53.316;-6.294;2023-11-22T04:30:07;3.10;;;1.27;;
41719;SDS011;27405;53.316;-6.294;2023-11-22T04:32:38;3.13;;;1.20;;
41719;SDS011;27405;53.316;-6.294;2023-11-22T04:35:04;2.75;;;0.88;;
41719;SDS011;27405;53.316;-6.294;2023-11-22T04:37:31;1.58;;;1.10;;
41719;SDS011;27405;53.316;-6.294;2023-11-22T04:40:00;4.50;;;1.00;;
41719;SDS011;27405;53.316;-6.294;2023-11-22T04:42:28;2.40;;;1.00;;
41719;SDS011;27405;53.316;-6.294;2023-11-22T04:48:16;1.98;;;0.88;;
41719;SDS011;27405;53.316;-6.294;2023-11-22T04:50:42;1.27;;;0.73;;
41719;SDS011;27405;53.316;-6.294;2023-11-22T04:53:10;2.72;;;0.70;;
41719;SDS011;27405;53.316;-6.294;2023-11-22T04:55:36;0.70;;;0.50;;
41719;SDS011;27405;53.316;-6.294;2023-11-22T04:58:02;1.08;;;0.40;;
41719;SDS011;27405;53.316;-6.294;2023-11-22T05:00:28;1.85;;;0.50;;
41719;SDS011;27405;53.316;-6.294;2023-11-22T05:02:55;0.63;;;0.60;;
41719;SDS011;27405;53.316;-6.294;2023-11-22T05:05:21;2.17;;;0.63;;
41719;SDS011;27405;53.316;-6.294;2023-11-22T05:07:47;3.67;;;0.77;;
41719;SDS011;27405;53.316;-6.294;2023-11-22T05:10:13;2.88;;;0.90;;
41719;SDS011;27405;53.316;-6.294;2023-11-22T05:12:42;2.17;;;0.70;;
41719;SDS011;27405;53.316;-6.294;2023-11-22T05:15:08;1.88;;;0.68;;
41719;SDS011;27405;53.316;-6.294;2023-11-22T05:17:35;2.33;;;1.10;;
41719;SDS011;27405;53.316;-6.294;2023-11-22T05:20:01;2.72;;;0.80;;
41719;SDS011;27405;53.316;-6.294;2023-11-22T05:22:27;0.85;;;0.60;;
41719;SDS011;27405;53.316;-6.294;2023-11-22T05:24:53;1.75;;;0.80;;
41719;SDS011;27405;53.316;-6.294;2023-11-22T05:27:19;2.25;;;0.80;;
41719;SDS011;27405;53.316;-6.294;2023-11-22T05:29:45;3.70;;;0.93;;
41719;SDS011;27405;53.316;-6.294;2023-11-22T05:32:11;2.42;;;0.80;;
41719;SDS011;27405;53.316;-6.294;2023-11-22T05:34:37;4.55;;;0.90;;
41719;SDS011;27405;53.316;-6.294;2023-11-22T05:37:05;2.83;;;0.90;;
41719;SDS011;27405;53.316;-6.294;2023-11-22T05:39:31;4.55;;;0.95;;
41719;SDS011;27405;53.316;-6.294;2023-11-22T05:41:57;3.15;;;0.90;;
41719;SDS011;27405;53.316;-6.294;2023-11-22T05:44:23;3.55;;;0.90;;
41719;SDS011;27405;53.316;-6.294;2023-11-22T05:46:51;3.92;;;0.95;;
41719;SDS011;27405;53.316;-6.294;2023-11-22T05:49:17;3.08;;;0.90;;
41719;SDS011;27405;53.316;-6.294;2023-11-22T05:51:43;3.05;;;0.88;;
41719;SDS011;27405;53.316;-6.294;2023-11-22T05:57:31;4.60;;;1.30;;
41719;SDS011;27405;53.316;-6.294;2023-11-22T05:59:57;6.53;;;1.23;;
41719;SDS011;27405;53.316;-6.294;2023-11-22T06:02:22;6.95;;;1.38;;
41719;SDS011;27405;53.316;-6.294;2023-11-22T06:04:48;4.38;;;1.20;;
41719;SDS011;27405;53.316;-6.294;2023-11-22T06:07:14;5.60;;;1.20;;
41719;SDS011;27405;53.316;-6.294;2023-11-22T06:09:40;4.10;;;1.10;;
41719;SDS011;27405;53.316;-6.294;2023-11-22T06:12:06;5.40;;;1.20;;
41719;SDS011;27405;53.316;-6.294;2023-11-22T06:17:54;7.90;;;1.70;;
41719;SDS011;27405;53.316;-6.294;2023-11-22T06:20:20;3.10;;;1.00;;
41719;SDS011;27405;53.316;-6.294;2023-11-22T06:22:46;6.55;;;1.30;;
41719;SDS011;27405;53.316;-6.294;2023-11-22T06:25:12;4.25;;;1.08;;
41719;SDS011;27405;53.316;-6.294;2023-11-22T06:27:38;6.43;;;1.35;;
41719;SDS011;27405;53.316;-6.294;2023-11-22T06:30:05;4.10;;;0.95;;
41719;SDS011;27405;53.316;-6.294;2023-11-22T06:32:34;7.00;;;1.33;;
41719;SDS011;27405;53.316;-6.294;2023-11-22T06:35:00;9.70;;;1.55;;
41719;SDS011;27405;53.316;-6.294;2023-11-22T06:37:26;3.00;;;1.10;;
41719;SDS011;27405;53.316;-6.294;2023-11-22T06:39:52;5.72;;;1.58;;
41719;SDS011;27405;53.316;-6.294;2023-11-22T06:42:18;2.80;;;0.93;;
41719;SDS011;27405;53.316;-6.294;2023-11-22T06:44:47;5.03;;;1.50;;
41719;SDS011;27405;53.316;-6.294;2023-11-22T06:47:13;4.18;;;1.20;;
41719;SDS011;27405;53.316;-6.294;2023-11-22T06:49:39;6.47;;;1.40;;
41719;SDS011;27405;53.316;-6.294;2023-11-22T06:52:05;6.38;;;1.20;;
41719;SDS011;27405;53.316;-6.294;2023-11-22T06:57:54;4.85;;;1.20;;
41719;SDS011;27405;53.316;-6.294;2023-11-22T07:00:20;5.63;;;1.40;;
41719;SDS011;27405;53.316;-6.294;2023-11-22T07:02:46;8.15;;;1.15;;
41719;SDS011;27405;53.316;-6.294;2023-11-22T07:05:13;6.30;;;2.00;;
41719;SDS011;27405;53.316;-6.294;2023-11-22T07:07:39;6.53;;;1.40;;
41719;SDS011;27405;53.316;-6.294;2023-11-22T07:10:05;6.28;;;1.73;;
41719;SDS011;27405;53.316;-6.294;2023-11-22T07:12:32;7.40;;;1.65;;
41719;SDS011;27405;53.316;-6.294;2023-11-22T07:15:02;7.28;;;1.40;;
41719;SDS011;27405;53.316;-6.294;2023-11-22T07:17:28;7.88;;;1.77;;
41719;SDS011;27405;53.316;-6.294;2023-11-22T07:19:54;9.80;;;1.70;;
41719;SDS011;27405;53.316;-6.294;2023-11-22T07:22:20;5.50;;;1.60;;
41719;SDS011;27405;53.316;-6.294;2023-11-22T07:28:09;5.22;;;1.58;;
41719;SDS011;27405;53.316;-6.294;2023-11-22T07:30:35;7.82;;;1.90;;
41719;SDS011;27405;53.316;-6.294;2023-11-22T07:33:03;7.63;;;1.90;;
41719;SDS011;27405;53.316;-6.294;2023-11-22T07:35:31;14.32;;;2.35;;
41719;SDS011;27405;53.316;-6.294;2023-11-22T07:37:57;8.25;;;2.20;;
41719;SDS011;27405;53.316;-6.294;2023-11-22T07:40:23;9.25;;;2.00;;
41719;SDS011;27405;53.316;-6.294;2023-11-22T07:42:49;9.77;;;2.33;;
41719;SDS011;27405;53.316;-6.294;2023-11-22T07:45:15;9.98;;;2.15;;
41719;SDS011;27405;53.316;-6.294;2023-11-22T07:47:45;12.55;;;2.22;;
41719;SDS011;27405;53.316;-6.294;2023-11-22T07:50:12;10.57;;;1.85;;
41719;SDS011;27405;53.316;-6.294;2023-11-22T07:52:38;9.43;;;2.13;;
41719;SDS011;27405;53.316;-6.294;2023-11-22T07:55:06;7.65;;;1.80;;
41719;SDS011;27405;53.316;-6.294;2023-11-22T07:57:33;7.03;;;1.50;;
41719;SDS011;27405;53.316;-6.294;2023-11-22T08:00:00;8.27;;;1.80;;
41719;SDS011;27405;53.316;-6.294;2023-11-22T08:02:29;8.65;;;2.20;;
41719;SDS011;27405;53.316;-6.294;2023-11-22T08:04:56;8.00;;;2.20;;
41719;SDS011;27405;53.316;-6.294;2023-11-22T08:07:22;8.85;;;1.73;;
41719;SDS011;27405;53.316;-6.294;2023-11-22T08:09:49;4.43;;;1.52;;
41719;SDS011;27405;53.316;-6.294;2023-11-22T08:12:15;8.02;;;1.95;;
41719;SDS011;27405;53.316;-6.294;2023-11-22T08:14:41;6.40;;;1.80;;
41719;SDS011;27405;53.316;-6.294;2023-11-22T08:17:09;6.90;;;1.52;;
41719;SDS011;27405;53.316;-6.294;2023-11-22T08:19:38;9.30;;;1.65;;
41719;SDS011;27405;53.316;-6.294;2023-11-22T08:22:05;7.05;;;1.70;;
41719;SDS011;27405;53.316;-6.294;2023-11-22T08:24:31;7.97;;;2.08;;
41719;SDS011;27405;53.316;-6.294;2023-11-22T08:26:57;7.93;;;1.85;;
41719;SDS011;27405;53.316;-6.294;2023-11-22T08:29:26;9.38;;;1.95;;
41719;SDS011;27405;53.316;-6.294;2023-11-22T08:31:52;7.78;;;1.77;;
41719;SDS011;27405;53.316;-6.294;2023-11-22T08:34:18;7.40;;;1.60;;
41719;SDS011;27405;53.316;-6.294;2023-11-22T08:36:44;8.57;;;1.50;;
41719;SDS011;27405;53.316;-6.294;2023-11-22T08:39:10;7.55;;;1.63;;
41719;SDS011;27405;53.316;-6.294;2023-11-22T08:41:36;8.90;;;2.05;;
41719;SDS011;27405;53.316;-6.294;2023-11-22T08:44:03;6.82;;;1.45;;
41719;SDS011;27405;53.316;-6.294;2023-11-22T08:46:29;13.75;;;2.00;;
41719;SDS011;27405;53.316;-6.294;2023-11-22T08:48:55;9.30;;;1.50;;
41719;SDS011;27405;53.316;-6.294;2023-11-22T08:51:21;5.03;;;1.58;;
41719;SDS011;27405;53.316;-6.294;2023-11-22T08:53:48;10.45;;;1.83;;
41719;SDS011;27405;53.316;-6.294;2023-11-22T08:56:20;6.68;;;1.60;;
41719;SDS011;27405;53.316;-6.294;2023-11-22T08:58:47;9.02;;;1.80;;
41719;SDS011;27405;53.316;-6.294;2023-11-22T09:01:13;8.65;;;1.85;;
41719;SDS011;27405;53.316;-6.294;2023-11-22T09:03:40;8.73;;;1.83;;
41719;SDS011;27405;53.316;-6.294;2023-11-22T09:06:06;8.07;;;1.70;;
41719;SDS011;27405;53.316;-6.294;2023-11-22T09:08:32;11.63;;;2.05;;
41719;SDS011;27405;53.316;-6.294;2023-11-22T09:10:58;6.93;;;1.58;;
41719;SDS011;27405;53.316;-6.294;2023-11-22T09:13:26;5.22;;;1.52;;
41719;SDS011;27405;53.316;-6.294;2023-11-22T09:15:52;5.95;;;1.45;;
41719;SDS011;27405;53.316;-6.294;2023-11-22T09:18:18;5.38;;;1.35;;
41719;SDS011;27405;53.316;-6.294;2023-11-22T09:20:44;7.22;;;1.70;;
41719;SDS011;27405;53.316;-6.294;2023-11-22T09:23:10;6.95;;;1.52;;
41719;SDS011;27405;53.316;-6.294;2023-11-22T09:25:37;6.93;;;1.60;;
41719;SDS011;27405;53.316;-6.294;2023-11-22T09:28:04;6.00;;;1.60;;
41719;SDS011;27405;53.316;-6.294;2023-11-22T09:30:32;2.93;;;0.97;;
41719;SDS011;27405;53.316;-6.294;2023-11-22T09:33:07;4.38;;;1.15;;
41719;SDS011;27405;53.316;-6.294;2023-11-22T09:35:35;5.10;;;1.00;;
41719;SDS011;27405;53.316;-6.294;2023-11-22T09:38:02;5.20;;;1.13;;
41719;SDS011;27405;53.316;-6.294;2023-11-22T09:40:34;8.05;;;1.40;;
41719;SDS011;27405;53.316;-6.294;2023-11-22T09:43:01;4.38;;;0.93;;
41719;SDS011;27405;53.316;-6.294;2023-11-22T09:45:28;3.55;;;1.02;;
41719;SDS011;27405;53.316;-6.294;2023-11-22T09:47:55;1.75;;;1.00;;
41719;SDS011;27405;53.316;-6.294;2023-11-22T09:50:46;5.85;;;1.27;;
41719;SDS011;27405;53.316;-6.294;2023-11-22T09:56:13;6.82;;;1.30;;
41719;SDS011;27405;53.316;-6.294;2023-11-22T09:58:41;3.65;;;1.27;;
41719;SDS011;27405;53.316;-6.294;2023-11-22T10:01:10;2.85;;;0.88;;
41719;SDS011;27405;53.316;-6.294;2023-11-22T10:03:38;6.13;;;1.15;;
41719;SDS011;27405;53.316;-6.294;2023-11-22T10:06:05;3.75;;;1.08;;
41719;SDS011;27405;53.316;-6.294;2023-11-22T10:08:32;2.80;;;1.08;;
41719;SDS011;27405;53.316;-6.294;2023-11-22T10:11:00;3.95;;;0.98;;
41719;SDS011;27405;53.316;-6.294;2023-11-22T10:13:27;3.53;;;1.10;;
41719;SDS011;27405;53.316;-6.294;2023-11-22T10:15:53;5.45;;;1.08;;
41719;SDS011;27405;53.316;-6.294;2023-11-22T10:18:19;1.60;;;0.90;;
41719;SDS011;27405;53.316;-6.294;2023-11-22T10:20:47;3.00;;;0.95;;
41719;SDS011;27405;53.316;-6.294;2023-11-22T10:23:15;1.95;;;1.00;;
41719;SDS011;27405;53.316;-6.294;2023-11-22T10:25:50;2.88;;;1.13;;
41719;SDS011;27405;53.316;-6.294;2023-11-22T10:28:19;2.97;;;0.85;;
41719;SDS011;27405;53.316;-6.294;2023-11-22T10:30:46;5.47;;;0.93;;
41719;SDS011;27405;53.316;-6.294;2023-11-22T10:33:15;2.10;;;1.00;;
41719;SDS011;27405;53.316;-6.294;2023-11-22T10:35:42;2.67;;;0.80;;
41719;SDS011;27405;53.316;-6.294;2023-11-22T10:38:18;3.85;;;0.98;;
41719;SDS011;27405;53.316;-6.294;2023-11-22T10:40:45;3.22;;;1.17;;
41719;SDS011;27405;53.316;-6.294;2023-11-22T10:43:13;4.15;;;0.90;;
41719;SDS011;27405;53.316;-6.294;2023-11-22T10:45:40;4.63;;;0.90;;
41719;SDS011;27405;53.316;-6.294;2023-11-22T10:48:14;1.15;;;0.63;;
41719;SDS011;27405;53.316;-6.294;2023-11-22T10:50:45;2.63;;;0.90;;
41719;SDS011;27405;53.316;-6.294;2023-11-22T10:53:12;4.05;;;0.90;;
41719;SDS011;27405;53.316;-6.294;2023-11-22T10:55:41;3.15;;;1.40;;
41719;SDS011;27405;53.316;-6.294;2023-11-22T10:58:10;3.97;;;1.30;;
41719;SDS011;27405;53.316;-6.294;2023-11-22T11:00:40;2.08;;;1.05;;
41719;SDS011;27405;53.316;-6.294;2023-11-22T11:03:11;3.00;;;1.20;;
41719;SDS011;27405;53.316;-6.294;2023-11-22T11:05:41;1.73;;;0.68;;
41719;SDS011;27405;53.316;-6.294;2023-11-22T11:08:14;4.13;;;1.02;;
41719;SDS011;27405;53.316;-6.294;2023-11-22T11:10:45;5.45;;;1.17;;
41719;SDS011;27405;53.316;-6.294;2023-11-22T11:13:12;3.90;;;1.15;;
41719;SDS011;27405;53.316;-6.294;2023-11-22T11:15:38;6.72;;;1.38;;
41719;SDS011;27405;53.316;-6.294;2023-11-22T11:18:06;3.92;;;1.33;;
41719;SDS011;27405;53.316;-6.294;2023-11-22T11:20:33;2.70;;;1.27;;
41719;SDS011;27405;53.316;-6.294;2023-11-22T11:23:22;4.78;;;1.10;;
41719;SDS011;27405;53.316;-6.294;2023-11-22T11:25:53;3.45;;;1.45;;
41719;SDS011;27405;53.316;-6.294;2023-11-22T11:28:21;4.32;;;2.00;;
41719;SDS011;27405;53.316;-6.294;2023-11-22T11:30:50;8.38;;;1.40;;
41719;SDS011;27405;53.316;-6.294;2023-11-22T11:33:27;3.60;;;1.65;;
41719;SDS011;27405;53.316;-6.294;2023-11-22T11:36:00;4.07;;;1.38;;
41719;SDS011;27405;53.316;-6.294;2023-11-22T11:38:32;3.67;;;1.25;;
41719;SDS011;27405;53.316;-6.294;2023-11-22T11:41:06;4.10;;;1.60;;
41719;SDS011;27405;53.316;-6.294;2023-11-22T11:43:47;3.70;;;1.20;;
41719;SDS011;27405;53.316;-6.294;2023-11-22T11:46:17;1.65;;;0.80;;
41719;SDS011;27405;53.316;-6.294;2023-11-22T11:48:49;3.30;;;1.00;;
41719;SDS011;27405;53.316;-6.294;2023-11-22T11:51:17;2.42;;;0.90;;
41719;SDS011;27405;53.316;-6.294;2023-11-22T11:53:45;2.53;;;1.30;;
41719;SDS011;27405;53.316;-6.294;2023-11-22T11:56:12;2.65;;;1.23;;
41719;SDS011;27405;53.316;-6.294;2023-11-22T11:58:38;5.10;;;2.35;;
41719;SDS011;27405;53.316;-6.294;2023-11-22T12:01:11;2.80;;;1.20;;
41719;SDS011;27405;53.316;-6.294;2023-11-22T12:03:49;3.03;;;1.20;;
41719;SDS011;27405;53.316;-6.294;2023-11-22T12:06:16;2.70;;;1.40;;
41719;SDS011;27405;53.316;-6.294;2023-11-22T12:08:44;3.03;;;1.70;;
41719;SDS011;27405;53.316;-6.294;2023-11-22T12:11:12;3.00;;;1.27;;
41719;SDS011;27405;53.316;-6.294;2023-11-22T12:13:41;1.67;;;1.10;;
41719;SDS011;27405;53.316;-6.294;2023-11-22T12:16:13;2.17;;;1.10;;
41719;SDS011;27405;53.316;-6.294;2023-11-22T12:18:41;2.58;;;1.20;;
41719;SDS011;27405;53.316;-6.294;2023-11-22T12:21:10;3.85;;;1.10;;
41719;SDS011;27405;53.316;-6.294;2023-11-22T12:23:40;4.53;;;1.30;;
41719;SDS011;27405;53.316;-6.294;2023-11-22T12:26:17;1.63;;;1.20;;
41719;SDS011;27405;53.316;-6.294;2023-11-22T12:28:46;3.90;;;1.15;;
41719;SDS011;27405;53.316;-6.294;2023-11-22T12:31:13;4.57;;;1.30;;
41719;SDS011;27405;53.316;-6.294;2023-11-22T12:33:41;3.35;;;1.02;;
41719;SDS011;27405;53.316;-6.294;2023-11-22T12:36:08;3.65;;;1.30;;
41719;SDS011;27405;53.316;-6.294;2023-11-22T12:38:35;2.45;;;1.10;;
41719;SDS011;27405;53.316;-6.294;2023-11-22T12:41:02;2.42;;;0.88;;
41719;SDS011;27405;53.316;-6.294;2023-11-22T12:43:29;2.78;;;1.13;;
41719;SDS011;27405;53.316;-6.294;2023-11-22T12:45:59;4.40;;;1.10;;
41719;SDS011;27405;53.316;-6.294;2023-11-22T12:48:32;5.32;;;1.38;;
41719;SDS011;27405;53.316;-6.294;2023-11-22T12:50:59;5.55;;;1.40;;
41719;SDS011;27405;53.316;-6.294;2023-11-22T12:56:48;5.47;;;1.55;;
41719;SDS011;27405;53.316;-6.294;2023-11-22T12:59:23;4.97;;;1.17;;
41719;SDS011;27405;53.316;-6.294;2023-11-22T13:01:53;7.30;;;1.40;;
41719;SDS011;27405;53.316;-6.294;2023-11-22T13:04:19;7.03;;;1.30;;
41719;SDS011;27405;53.316;-6.294;2023-11-22T13:06:45;4.30;;;1.17;;
41719;SDS011;27405;53.316;-6.294;2023-11-22T13:09:11;6.03;;;1.13;;
41719;SDS011;27405;53.316;-6.294;2023-11-22T13:11:40;4.85;;;1.08;;
41719;SDS011;27405;53.316;-6.294;2023-11-22T13:14:08;2.65;;;1.30;;
41719;SDS011;27405;53.316;-6.294;2023-11-22T13:16:35;2.83;;;0.82;;
41719;SDS011;27405;53.316;-6.294;2023-11-22T13:21:29;4.60;;;1.33;;
41719;SDS011;27405;53.316;-6.294;2023-11-22T13:23:56;4.50;;;1.17;;
41719;SDS011;27405;53.316;-6.294;2023-11-22T13:26:24;6.47;;;1.15;;
41719;SDS011;27405;53.316;-6.294;2023-11-22T13:28:51;6.30;;;1.52;;
41719;SDS011;27405;53.316;-6.294;2023-11-22T13:31:19;6.35;;;1.23;;
41719;SDS011;27405;53.316;-6.294;2023-11-22T13:33:46;3.17;;;1.25;;
41719;SDS011;27405;53.316;-6.294;2023-11-22T13:36:12;3.28;;;1.00;;
41719;SDS011;27405;53.316;-6.294;2023-11-22T13:38:40;5.07;;;1.27;;
41719;SDS011;27405;53.316;-6.294;2023-11-22T13:41:06;5.28;;;1.20;;
41719;SDS011;27405;53.316;-6.294;2023-11-22T13:43:32;0.88;;;0.82;;
41719;SDS011;27405;53.316;-6.294;2023-11-22T13:46:00;4.07;;;1.50;;
41719;SDS011;27405;53.316;-6.294;2023-11-22T13:48:26;6.05;;;1.23;;
41719;SDS011;27405;53.316;-6.294;2023-11-22T13:50:52;3.63;;;1.20;;
41719;SDS011;27405;53.316;-6.294;2023-11-22T13:53:18;6.55;;;1.40;;
41719;SDS011;27405;53.316;-6.294;2023-11-22T13:55:47;5.45;;;1.48;;
41719;SDS011;27405;53.316;-6.294;2023-11-22T13:58:16;7.30;;;1.83;;
41719;SDS011;27405;53.316;-6.294;2023-11-22T14:00:42;3.22;;;1.40;;
41719;SDS011;27405;53.316;-6.294;2023-11-22T14:03:08;4.68;;;1.42;;
41719;SDS011;27405;53.316;-6.294;2023-11-22T14:05:36;5.05;;;1.23;;
41719;SDS011;27405;53.316;-6.294;2023-11-22T14:08:04;6.93;;;1.73;;
41719;SDS011;27405;53.316;-6.294;2023-11-22T14:10:31;4.63;;;1.67;;
41719;SDS011;27405;53.316;-6.294;2023-11-22T14:12:58;4.78;;;1.55;;
41719;SDS011;27405;53.316;-6.294;2023-11-22T14:15:25;17.92;;;3.22;;
41719;SDS011;27405;53.316;-6.294;2023-11-22T14:17:55;7.78;;;2.10;;
41719;SDS011;27405;53.316;-6.294;2023-11-22T14:20:21;4.63;;;1.55;;
41719;SDS011;27405;53.316;-6.294;2023-11-22T14:22:47;2.90;;;1.42;;
41719;SDS011;27405;53.316;-6.294;2023-11-22T14:25:13;7.03;;;2.25;;
41719;SDS011;27405;53.316;-6.294;2023-11-22T14:27:44;4.22;;;1.77;;
41719;SDS011;27405;53.316;-6.294;2023-11-22T14:30:11;6.35;;;1.30;;
41719;SDS011;27405;53.316;-6.294;2023-11-22T14:32:42;4.40;;;1.40;;
41719;SDS011;27405;53.316;-6.294;2023-11-22T14:35:09;2.42;;;1.17;;
41719;SDS011;27405;53.316;-6.294;2023-11-22T14:37:35;3.95;;;1.35;;
41719;SDS011;27405;53.316;-6.294;2023-11-22T14:40:08;4.10;;;1.70;;
41719;SDS011;27405;53.316;-6.294;2023-11-22T14:42:45;3.47;;;1.27;;
41719;SDS011;27405;53.316;-6.294;2023-11-22T14:45:13;8.60;;;1.70;;
41719;SDS011;27405;53.316;-6.294;2023-11-22T14:47:39;7.43;;;1.70;;
41719;SDS011;27405;53.316;-6.294;2023-11-22T14:50:07;4.50;;;1.70;;
41719;SDS011;27405;53.316;-6.294;2023-11-22T14:52:37;13.18;;;6.07;;
41719;SDS011;27405;53.316;-6.294;2023-11-22T14:55:04;5.68;;;1.85;;
41719;SDS011;27405;53.316;-6.294;2023-11-22T14:57:30;7.15;;;1.58;;
41719;SDS011;27405;53.316;-6.294;2023-11-22T14:59:57;5.72;;;1.30;;
41719;SDS011;27405;53.316;-6.294;2023-11-22T15:02:23;6.93;;;1.45;;
41719;SDS011;27405;53.316;-6.294;2023-11-22T15:04:51;3.00;;;1.20;;
41719;SDS011;27405;53.316;-6.294;2023-11-22T15:07:17;5.50;;;1.50;;
41719;SDS011;27405;53.316;-6.294;2023-11-22T15:09:44;2.72;;;1.50;;
41719;SDS011;27405;53.316;-6.294;2023-11-22T15:12:11;2.25;;;1.40;;
41719;SDS011;27405;53.316;-6.294;2023-11-22T15:14:37;1.48;;;1.00;;
41719;SDS011;27405;53.316;-6.294;2023-11-22T15:17:03;5.07;;;1.52;;